Kezdőlap
METAR-TAF:

METAR-TAF

Repülőterek :

Torino, Olaszország

földrajzi szélesség: 45-05-20N, földrajzi hosszúság: 007-36-20E, magasság: 288 m

Jelenlegi meteorológiai megfigyelések

A jelentés 1 órával és 49 perccel ezelõtt készült, 13:50 UTC
Dél-délnyugati szél 3 kt, déli és nyugat-délnyugati között változik
Hőmérséklet 8°C
Páratartalom 61%
Légköri nyomás 1022 hPa
Látótávolság: 7000 m

METAR: LIMA 061350Z 21003KT 170V240 7000 NSC 08/01 Q1022

Idő: 16:39 (15:39 UTC)


TAF: hiányzik

Meteorológiai megfigyelések és előrejelzések több, mint 4000 repülőtéren (METAR és TAF jelentéseket).

A térképen piros és sárga pontok jelzik az elérhető meteorológiai állomásokat.

Mozgassa az egeret a pont fölött, hogy megjelenjen az állomás neve.

Azután kattintson az időjárási megfigyelések és előrejelzések megtekintéséhez.

A térkép megváltoztatása: kattintson a fekete keresztel jelölt zöld gombra ráközelítéshez, a vonallal jelölt zöld gombra távolításhoz, vagy a zöld nyilakra a szomszédos térképek eléréséhez.


METAR-TAF: